sensor_id;sensor_type;location;lat;lon;timestamp;temperature;humidity
22319;DHT22;11327;52.334;9.506;2022-12-07T03:17:23;4.20;99.90
22319;DHT22;11327;52.334;9.506;2022-12-07T03:20:45;4.20;99.90
22319;DHT22;11327;52.334;9.506;2022-12-07T03:24:14;4.20;99.90
22319;DHT22;11327;52.334;9.506;2022-12-07T03:27:41;4.20;99.90
22319;DHT22;11327;52.334;9.506;2022-12-07T03:31:22;4.20;99.90
22319;DHT22;11327;52.334;9.506;2022-12-07T03:34:50;4.20;99.90
22319;DHT22;11327;52.334;9.506;2022-12-07T03:38:22;4.20;99.90
22319;DHT22;11327;52.334;9.506;2022-12-07T03:41:43;4.10;99.90
22319;DHT22;11327;52.334;9.506;2022-12-07T03:45:04;4.10;99.90
22319;DHT22;11327;52.334;9.506;2022-12-07T03:48:33;4.10;99.90
22319;DHT22;11327;52.334;9.506;2022-12-07T03:55:34;4.00;99.90
22319;DHT22;11327;52.334;9.506;2022-12-07T03:58:55;3.90;99.90
22319;DHT22;11327;52.334;9.506;2022-12-07T04:02:16;4.00;99.90
22319;DHT22;11327;52.334;9.506;2022-12-07T04:05:39;3.90;99.90
22319;DHT22;11327;52.334;9.506;2022-12-07T04:09:00;4.00;99.90
22319;DHT22;11327;52.334;9.506;2022-12-07T04:12:22;4.00;99.90
22319;DHT22;11327;52.334;9.506;2022-12-07T04:15:43;4.00;99.90
22319;DHT22;11327;52.334;9.506;2022-12-07T04:19:04;3.90;99.90
22319;DHT22;11327;52.334;9.506;2022-12-07T04:22:25;4.00;99.90
22319;DHT22;11327;52.334;9.506;2022-12-07T04:25:48;4.00;99.90
22319;DHT22;11327;52.334;9.506;2022-12-07T04:29:09;4.00;99.90
22319;DHT22;11327;52.334;9.506;2022-12-07T04:32:30;3.90;99.90
22319;DHT22;11327;52.334;9.506;2022-12-07T04:35:51;4.00;99.90
22319;DHT22;11327;52.334;9.506;2022-12-07T04:39:24;3.90;99.90
22319;DHT22;11327;52.334;9.506;2022-12-07T04:42:43;3.90;99.90
22319;DHT22;11327;52.334;9.506;2022-12-07T04:46:04;3.90;99.90
22319;DHT22;11327;52.334;9.506;2022-12-07T04:49:25;3.90;99.90
22319;DHT22;11327;52.334;9.506;2022-12-07T04:52:46;3.80;99.90
22319;DHT22;11327;52.334;9.506;2022-12-07T04:56:07;3.80;99.90
22319;DHT22;11327;52.334;9.506;2022-12-07T04:59:28;3.80;99.90
22319;DHT22;11327;52.334;9.506;2022-12-07T05:02:49;3.80;99.90
22319;DHT22;11327;52.334;9.506;2022-12-07T05:06:10;3.90;99.90
22319;DHT22;11327;52.334;9.506;2022-12-07T05:09:32;3.80;99.90
22319;DHT22;11327;52.334;9.506;2022-12-07T05:12:53;3.80;99.90
22319;DHT22;11327;52.334;9.506;2022-12-07T05:16:13;3.80;99.90
22319;DHT22;11327;52.334;9.506;2022-12-07T05:19:34;3.90;99.90
22319;DHT22;11327;52.334;9.506;2022-12-07T05:22:55;3.90;99.90
22319;DHT22;11327;52.334;9.506;2022-12-07T05:26:18;3.90;99.90
22319;DHT22;11327;52.334;9.506;2022-12-07T05:29:39;3.90;99.90
22319;DHT22;11327;52.334;9.506;2022-12-07T05:33:00;3.90;99.90
22319;DHT22;11327;52.334;9.506;2022-12-07T05:36:21;3.80;99.90
22319;DHT22;11327;52.334;9.506;2022-12-07T05:39:42;3.80;99.90
22319;DHT22;11327;52.334;9.506;2022-12-07T05:43:04;3.90;99.90
22319;DHT22;11327;52.334;9.506;2022-12-07T05:46:25;3.90;99.90
22319;DHT22;11327;52.334;9.506;2022-12-07T05:49:46;3.80;99.90
22319;DHT22;11327;52.334;9.506;2022-12-07T05:53:08;3.80;99.90
22319;DHT22;11327;52.334;9.506;2022-12-07T05:56:29;3.80;99.90
22319;DHT22;11327;52.334;9.506;2022-12-07T05:59:49;3.80;99.90
22319;DHT22;11327;52.334;9.506;2022-12-07T06:03:10;3.80;99.90
22319;DHT22;11327;52.334;9.506;2022-12-07T06:06:31;3.70;99.90
22319;DHT22;11327;52.334;9.506;2022-12-07T06:09:52;3.80;99.90
22319;DHT22;11327;52.334;9.506;2022-12-07T06:13:13;3.70;99.90
22319;DHT22;11327;52.334;9.506;2022-12-07T06:16:34;3.70;99.90
22319;DHT22;11327;52.334;9.506;2022-12-07T06:19:55;3.70;99.90
22319;DHT22;11327;52.334;9.506;2022-12-07T06:23:16;3.70;99.90
22319;DHT22;11327;52.334;9.506;2022-12-07T06:26:37;3.70;99.90
22319;DHT22;11327;52.334;9.506;2022-12-07T06:29:59;3.70;99.90
22319;DHT22;11327;52.334;9.506;2022-12-07T06:33:20;3.70;99.90
22319;DHT22;11327;52.334;9.506;2022-12-07T06:36:41;3.70;99.90
22319;DHT22;11327;52.334;9.506;2022-12-07T06:40:03;3.70;99.90
22319;DHT22;11327;52.334;9.506;2022-12-07T06:43:24;3.80;99.90
22319;DHT22;11327;52.334;9.506;2022-12-07T06:46:44;3.70;99.90
22319;DHT22;11327;52.334;9.506;2022-12-07T06:50:06;3.70;99.90
22319;DHT22;11327;52.334;9.506;2022-12-07T06:53:28;3.70;99.90
22319;DHT22;11327;52.334;9.506;2022-12-07T06:56:49;3.60;99.90
22319;DHT22;11327;52.334;9.506;2022-12-07T07:00:11;3.60;99.90
22319;DHT22;11327;52.334;9.506;2022-12-07T07:03:32;3.60;99.90
22319;DHT22;11327;52.334;9.506;2022-12-07T07:06:53;3.50;99.90
22319;DHT22;11327;52.334;9.506;2022-12-07T07:10:14;3.50;99.90
22319;DHT22;11327;52.334;9.506;2022-12-07T07:13:35;3.40;99.90
22319;DHT22;11327;52.334;9.506;2022-12-07T07:16:56;3.40;99.90
22319;DHT22;11327;52.334;9.506;2022-12-07T07:20:17;3.40;99.90
22319;DHT22;11327;52.334;9.506;2022-12-07T07:23:38;3.40;99.90
22319;DHT22;11327;52.334;9.506;2022-12-07T07:26:59;3.40;99.90
22319;DHT22;11327;52.334;9.506;2022-12-07T07:30:20;3.40;99.90
22319;DHT22;11327;52.334;9.506;2022-12-07T07:33:41;3.40;99.90
22319;DHT22;11327;52.334;9.506;2022-12-07T07:37:02;3.40;99.90
22319;DHT22;11327;52.334;9.506;2022-12-07T07:40:23;3.40;99.90
22319;DHT22;11327;52.334;9.506;2022-12-07T07:43:44;3.40;99.90
22319;DHT22;11327;52.334;9.506;2022-12-07T07:47:05;3.40;99.90
22319;DHT22;11327;52.334;9.506;2022-12-07T07:50:26;3.40;99.90
22319;DHT22;11327;52.334;9.506;2022-12-07T07:53:47;3.40;99.90
22319;DHT22;11327;52.334;9.506;2022-12-07T07:57:08;3.50;99.90
22319;DHT22;11327;52.334;9.506;2022-12-07T08:00:29;3.50;99.90
22319;DHT22;11327;52.334;9.506;2022-12-07T08:03:50;3.50;99.90
22319;DHT22;11327;52.334;9.506;2022-12-07T08:07:11;3.40;99.90
22319;DHT22;11327;52.334;9.506;2022-12-07T08:10:33;3.50;99.90
22319;DHT22;11327;52.334;9.506;2022-12-07T08:13:55;3.50;99.90
22319;DHT22;11327;52.334;9.506;2022-12-07T08:17:16;3.50;99.90
22319;DHT22;11327;52.334;9.506;2022-12-07T08:20:37;3.50;99.90
22319;DHT22;11327;52.334;9.506;2022-12-07T08:23:59;3.60;99.90
22319;DHT22;11327;52.334;9.506;2022-12-07T08:27:20;3.60;99.90
22319;DHT22;11327;52.334;9.506;2022-12-07T08:30:41;3.60;99.90
22319;DHT22;11327;52.334;9.506;2022-12-07T08:34:02;3.70;99.90
22319;DHT22;11327;52.334;9.506;2022-12-07T08:37:23;3.70;99.90
22319;DHT22;11327;52.334;9.506;2022-12-07T08:40:44;3.70;99.90
22319;DHT22;11327;52.334;9.506;2022-12-07T08:44:05;3.80;99.90
22319;DHT22;11327;52.334;9.506;2022-12-07T08:47:26;3.80;99.90
22319;DHT22;11327;52.334;9.506;2022-12-07T08:50:48;3.80;99.90
22319;DHT22;11327;52.334;9.506;2022-12-07T08:54:12;3.80;99.90
22319;DHT22;11327;52.334;9.506;2022-12-07T08:57:34;3.80;99.90
22319;DHT22;11327;52.334;9.506;2022-12-07T09:00:56;3.80;99.90
22319;DHT22;11327;52.334;9.506;2022-12-07T09:04:17;3.80;99.90
22319;DHT22;11327;52.334;9.506;2022-12-07T09:07:38;3.90;99.90
22319;DHT22;11327;52.334;9.506;2022-12-07T09:10:59;3.90;99.90
22319;DHT22;11327;52.334;9.506;2022-12-07T09:14:21;3.90;99.90
22319;DHT22;11327;52.334;9.506;2022-12-07T09:17:42;3.90;99.90
22319;DHT22;11327;52.334;9.506;2022-12-07T09:21:03;3.90;99.90
22319;DHT22;11327;52.334;9.506;2022-12-07T09:24:24;3.90;99.90
22319;DHT22;11327;52.334;9.506;2022-12-07T09:27:45;3.90;99.90
22319;DHT22;11327;52.334;9.506;2022-12-07T09:31:06;3.80;99.90
22319;DHT22;11327;52.334;9.506;2022-12-07T09:34:29;3.80;99.90
22319;DHT22;11327;52.334;9.506;2022-12-07T09:37:50;3.90;99.90
22319;DHT22;11327;52.334;9.506;2022-12-07T09:41:11;3.90;99.90
22319;DHT22;11327;52.334;9.506;2022-12-07T09:44:33;4.00;99.90
22319;DHT22;11327;52.334;9.506;2022-12-07T09:47:54;4.00;99.90
22319;DHT22;11327;52.334;9.506;2022-12-07T09:54:43;4.00;99.90
22319;DHT22;11327;52.334;9.506;2022-12-07T09:58:05;4.00;99.90
22319;DHT22;11327;52.334;9.506;2022-12-07T10:01:29;4.10;99.90
22319;DHT22;11327;52.334;9.506;2022-12-07T10:04:50;4.10;99.90
22319;DHT22;11327;52.334;9.506;2022-12-07T10:08:13;4.10;99.90
22319;DHT22;11327;52.334;9.506;2022-12-07T10:11:34;4.10;99.90
22319;DHT22;11327;52.334;9.506;2022-12-07T10:15:01;4.20;99.90
22319;DHT22;11327;52.334;9.506;2022-12-07T10:22:14;4.40;99.90
22319;DHT22;11327;52.334;9.506;2022-12-07T10:25:34;4.40;99.90
22319;DHT22;11327;52.334;9.506;2022-12-07T10:29:02;4.30;99.90
22319;DHT22;11327;52.334;9.506;2022-12-07T10:32:36;4.30;99.90
22319;DHT22;11327;52.334;9.506;2022-12-07T10:35:58;4.30;99.90
22319;DHT22;11327;52.334;9.506;2022-12-07T10:39:21;4.30;99.90
22319;DHT22;11327;52.334;9.506;2022-12-07T10:42:44;4.30;99.90
22319;DHT22;11327;52.334;9.506;2022-12-07T10:49:53;4.60;99.90
22319;DHT22;11327;52.334;9.506;2022-12-07T11:00:25;5.10;99.90
22319;DHT22;11327;52.334;9.506;2022-12-07T11:32:50;5.00;99.90
22319;DHT22;11327;52.334;9.506;2022-12-07T11:39:37;4.90;99.90
22319;DHT22;11327;52.334;9.506;2022-12-07T11:46:31;5.00;99.90
22319;DHT22;11327;52.334;9.506;2022-12-07T11:53:22;5.20;99.90
22319;DHT22;11327;52.334;9.506;2022-12-07T11:56:43;5.30;99.90
22319;DHT22;11327;52.334;9.506;2022-12-07T12:00:17;5.30;99.90
22319;DHT22;11327;52.334;9.506;2022-12-07T12:03:42;5.30;99.90
22319;DHT22;11327;52.334;9.506;2022-12-07T12:07:05;5.20;99.90
22319;DHT22;11327;52.334;9.506;2022-12-07T12:17:29;5.10;99.90
22319;DHT22;11327;52.334;9.506;2022-12-07T12:20:58;5.10;99.90
22319;DHT22;11327;52.334;9.506;2022-12-07T12:24:22;5.10;99.90
22319;DHT22;11327;52.334;9.506;2022-12-07T12:27:46;5.20;99.90
22319;DHT22;11327;52.334;9.506;2022-12-07T12:31:14;5.30;99.90
22319;DHT22;11327;52.334;9.506;2022-12-07T12:48:42;5.40;99.90
22319;DHT22;11327;52.334;9.506;2022-12-07T12:56:14;5.40;99.90
22319;DHT22;11327;52.334;9.506;2022-12-07T12:59:35;5.30;99.90
22319;DHT22;11327;52.334;9.506;2022-12-07T13:02:59;5.40;99.90
22319;DHT22;11327;52.334;9.506;2022-12-07T13:09:51;5.40;99.90
22319;DHT22;11327;52.334;9.506;2022-12-07T13:16:40;5.40;99.90
22319;DHT22;11327;52.334;9.506;2022-12-07T13:20:06;5.40;99.90
22319;DHT22;11327;52.334;9.506;2022-12-07T13:27:07;5.20;99.90
22319;DHT22;11327;52.334;9.506;2022-12-07T13:30:30;5.20;99.90
22319;DHT22;11327;52.334;9.506;2022-12-07T13:33:52;5.20;99.90
22319;DHT22;11327;52.334;9.506;2022-12-07T13:37:18;5.20;99.90
22319;DHT22;11327;52.334;9.506;2022-12-07T13:40:37;5.20;99.90
22319;DHT22;11327;52.334;9.506;2022-12-07T13:44:13;5.10;99.90
22319;DHT22;11327;52.334;9.506;2022-12-07T13:47:57;5.10;99.90
22319;DHT22;11327;52.334;9.506;2022-12-07T13:51:17;5.10;99.90
22319;DHT22;11327;52.334;9.506;2022-12-07T13:54:44;5.00;99.90
22319;DHT22;11327;52.334;9.506;2022-12-07T13:58:07;5.00;99.90
22319;DHT22;11327;52.334;9.506;2022-12-07T14:01:31;5.00;99.90
22319;DHT22;11327;52.334;9.506;2022-12-07T14:05:16;5.00;99.90
22319;DHT22;11327;52.334;9.506;2022-12-07T14:11:41;5.00;99.90
22319;DHT22;11327;52.334;9.506;2022-12-07T14:15:02;5.00;99.90
22319;DHT22;11327;52.334;9.506;2022-12-07T14:22:27;5.00;99.90
22319;DHT22;11327;52.334;9.506;2022-12-07T14:25:23;4.90;99.90
22319;DHT22;11327;52.334;9.506;2022-12-07T14:28:46;4.90;99.90
22319;DHT22;11327;52.334;9.506;2022-12-07T14:35:46;4.90;99.90
22319;DHT22;11327;52.334;9.506;2022-12-07T14:39:07;4.80;99.90
22319;DHT22;11327;52.334;9.506;2022-12-07T14:42:30;4.80;99.90
22319;DHT22;11327;52.334;9.506;2022-12-07T14:45:51;4.70;99.90
22319;DHT22;11327;52.334;9.506;2022-12-07T14:49:12;4.70;99.90
22319;DHT22;11327;52.334;9.506;2022-12-07T14:52:33;4.70;99.90
22319;DHT22;11327;52.334;9.506;2022-12-07T14:55:54;4.60;99.90
22319;DHT22;11327;52.334;9.506;2022-12-07T14:59:16;4.60;99.90
22319;DHT22;11327;52.334;9.506;2022-12-07T15:02:37;4.60;99.90
22319;DHT22;11327;52.334;9.506;2022-12-07T15:05:58;4.50;99.90
22319;DHT22;11327;52.334;9.506;2022-12-07T15:09:19;4.50;99.90
22319;DHT22;11327;52.334;9.506;2022-12-07T15:12:40;4.40;99.90
22319;DHT22;11327;52.334;9.506;2022-12-07T15:16:01;4.30;99.90
22319;DHT22;11327;52.334;9.506;2022-12-07T15:19:23;4.30;99.90
22319;DHT22;11327;52.334;9.506;2022-12-07T15:22:46;4.30;99.90
22319;DHT22;11327;52.334;9.506;2022-12-07T15:26:07;4.20;99.90
22319;DHT22;11327;52.334;9.506;2022-12-07T15:29:28;4.20;99.90
22319;DHT22;11327;52.334;9.506;2022-12-07T15:32:54;4.20;99.90
22319;DHT22;11327;52.334;9.506;2022-12-07T15:36:19;4.10;99.90
22319;DHT22;11327;52.334;9.506;2022-12-07T15:39:41;4.10;99.90
22319;DHT22;11327;52.334;9.506;2022-12-07T15:43:02;4.10;99.90
22319;DHT22;11327;52.334;9.506;2022-12-07T15:46:29;4.20;99.90
22319;DHT22;11327;52.334;9.506;2022-12-07T15:49:51;4.00;99.90
22319;DHT22;11327;52.334;9.506;2022-12-07T15:53:14;4.00;99.90
22319;DHT22;11327;52.334;9.506;2022-12-07T15:56:35;4.00;99.90
22319;DHT22;11327;52.334;9.506;2022-12-07T15:59:55;3.90;99.90
22319;DHT22;11327;52.334;9.506;2022-12-07T16:03:17;3.90;99.90
22319;DHT22;11327;52.334;9.506;2022-12-07T16:06:38;3.90;99.90
22319;DHT22;11327;52.334;9.506;2022-12-07T16:09:59;3.90;99.90
22319;DHT22;11327;52.334;9.506;2022-12-07T16:13:20;3.80;99.90
22319;DHT22;11327;52.334;9.506;2022-12-07T16:16:41;3.90;99.90
22319;DHT22;11327;52.334;9.506;2022-12-07T16:20:03;3.90;99.90
22319;DHT22;11327;52.334;9.506;2022-12-07T16:23:25;4.00;99.90
22319;DHT22;11327;52.334;9.506;2022-12-07T16:26:46;4.00;99.90
22319;DHT22;11327;52.334;9.506;2022-12-07T16:30:07;4.00;99.90
22319;DHT22;11327;52.334;9.506;2022-12-07T16:33:29;3.90;99.90
22319;DHT22;11327;52.334;9.506;2022-12-07T16:36:50;3.90;99.90
22319;DHT22;11327;52.334;9.506;2022-12-07T16:40:12;3.90;99.90
22319;DHT22;11327;52.334;9.506;2022-12-07T16:43:33;3.90;99.90
22319;DHT22;11327;52.334;9.506;2022-12-07T16:46:54;3.90;99.90
22319;DHT22;11327;52.334;9.506;2022-12-07T16:50:15;3.90;99.90
22319;DHT22;11327;52.334;9.506;2022-12-07T16:53:36;3.90;99.90
22319;DHT22;11327;52.334;9.506;2022-12-07T16:56:58;4.00;99.90
22319;DHT22;11327;52.334;9.506;2022-12-07T17:00:19;3.90;99.90
22319;DHT22;11327;52.334;9.506;2022-12-07T17:03:41;4.00;99.90
22319;DHT22;11327;52.334;9.506;2022-12-07T17:07:02;4.00;99.90
22319;DHT22;11327;52.334;9.506;2022-12-07T17:10:24;3.90;99.90
22319;DHT22;11327;52.334;9.506;2022-12-07T17:13:45;3.90;99.90
22319;DHT22;11327;52.334;9.506;2022-12-07T17:17:24;3.90;99.90
22319;DHT22;11327;52.334;9.506;2022-12-07T17:20:45;3.90;99.90
22319;DHT22;11327;52.334;9.506;2022-12-07T17:24:08;3.80;99.90
22319;DHT22;11327;52.334;9.506;2022-12-07T17:27:30;3.80;99.90
22319;DHT22;11327;52.334;9.506;2022-12-07T17:30:51;3.80;99.90
22319;DHT22;11327;52.334;9.506;2022-12-07T17:34:13;3.80;99.90
22319;DHT22;11327;52.334;9.506;2022-12-07T17:37:35;3.80;99.90
22319;DHT22;11327;52.334;9.506;2022-12-07T17:40:56;3.80;99.90
22319;DHT22;11327;52.334;9.506;2022-12-07T17:44:18;3.80;99.90
22319;DHT22;11327;52.334;9.506;2022-12-07T17:47:40;3.80;99.90
22319;DHT22;11327;52.334;9.506;2022-12-07T17:51:01;3.80;99.90
22319;DHT22;11327;52.334;9.506;2022-12-07T17:54:41;3.90;99.90
22319;DHT22;11327;52.334;9.506;2022-12-07T17:58:02;3.90;99.90
22319;DHT22;11327;52.334;9.506;2022-12-07T18:01:24;4.00;99.90
22319;DHT22;11327;52.334;9.506;2022-12-07T18:04:45;4.00;99.90
22319;DHT22;11327;52.334;9.506;2022-12-07T18:08:07;4.00;99.90
22319;DHT22;11327;52.334;9.506;2022-12-07T18:11:28;4.00;99.90
22319;DHT22;11327;52.334;9.506;2022-12-07T18:14:49;4.00;99.90
22319;DHT22;11327;52.334;9.506;2022-12-07T18:18:10;4.10;99.90
22319;DHT22;11327;52.334;9.506;2022-12-07T18:21:32;4.00;99.90
22319;DHT22;11327;52.334;9.506;2022-12-07T18:24:53;4.10;99.90
22319;DHT22;11327;52.334;9.506;2022-12-07T18:28:15;4.00;99.90
22319;DHT22;11327;52.334;9.506;2022-12-07T18:31:36;4.00;99.90
22319;DHT22;11327;52.334;9.506;2022-12-07T18:34:57;4.00;99.90
22319;DHT22;11327;52.334;9.506;2022-12-07T18:38:19;4.00;99.90
22319;DHT22;11327;52.334;9.506;2022-12-07T18:41:40;4.10;99.90
22319;DHT22;11327;52.334;9.506;2022-12-07T18:45:02;4.00;99.90
22319;DHT22;11327;52.334;9.506;2022-12-07T18:48:23;4.00;99.90
22319;DHT22;11327;52.334;9.506;2022-12-07T18:51:44;4.10;99.90
22319;DHT22;11327;52.334;9.506;2022-12-07T18:55:06;4.00;99.90
22319;DHT22;11327;52.334;9.506;2022-12-07T18:58:27;4.10;99.90
22319;DHT22;11327;52.334;9.506;2022-12-07T19:01:50;4.00;99.90
22319;DHT22;11327;52.334;9.506;2022-12-07T19:05:12;4.00;99.90
22319;DHT22;11327;52.334;9.506;2022-12-07T19:08:33;4.10;99.90
22319;DHT22;11327;52.334;9.506;2022-12-07T19:11:56;4.10;99.90
22319;DHT22;11327;52.334;9.506;2022-12-07T19:15:19;4.00;99.90
22319;DHT22;11327;52.334;9.506;2022-12-07T19:18:39;4.00;99.90
22319;DHT22;11327;52.334;9.506;2022-12-07T19:22:01;4.00;99.90
22319;DHT22;11327;52.334;9.506;2022-12-07T19:25:22;4.00;99.90
22319;DHT22;11327;52.334;9.506;2022-12-07T19:28:43;4.00;99.90
22319;DHT22;11327;52.334;9.506;2022-12-07T19:32:07;4.00;99.90
22319;DHT22;11327;52.334;9.506;2022-12-07T19:35:29;4.00;99.90
22319;DHT22;11327;52.334;9.506;2022-12-07T19:38:50;4.00;99.90
22319;DHT22;11327;52.334;9.506;2022-12-07T19:42:11;4.00;99.90
22319;DHT22;11327;52.334;9.506;2022-12-07T19:45:33;4.00;99.90
22319;DHT22;11327;52.334;9.506;2022-12-07T19:48:54;3.90;99.90
22319;DHT22;11327;52.334;9.506;2022-12-07T19:52:15;3.90;99.90
22319;DHT22;11327;52.334;9.506;2022-12-07T19:55:38;3.90;99.90
22319;DHT22;11327;52.334;9.506;2022-12-07T19:59:01;3.90;99.90
22319;DHT22;11327;52.334;9.506;2022-12-07T20:02:22;3.80;99.90
22319;DHT22;11327;52.334;9.506;2022-12-07T20:05:43;3.90;99.90
22319;DHT22;11327;52.334;9.506;2022-12-07T20:09:04;3.90;99.90
22319;DHT22;11327;52.334;9.506;2022-12-07T20:12:25;3.80;99.90
22319;DHT22;11327;52.334;9.506;2022-12-07T20:16:05;3.80;99.90
22319;DHT22;11327;52.334;9.506;2022-12-07T20:19:26;3.80;99.90
22319;DHT22;11327;52.334;9.506;2022-12-07T20:22:47;3.90;99.90
22319;DHT22;11327;52.334;9.506;2022-12-07T20:29:38;3.90;99.90
22319;DHT22;11327;52.334;9.506;2022-12-07T20:32:59;3.80;99.90
22319;DHT22;11327;52.334;9.506;2022-12-07T20:43:21;3.80;99.90
22319;DHT22;11327;52.334;9.506;2022-12-07T20:46:42;3.90;99.90
22319;DHT22;11327;52.334;9.506;2022-12-07T20:50:05;3.90;99.90
22319;DHT22;11327;52.334;9.506;2022-12-07T20:53:26;3.90;99.90
22319;DHT22;11327;52.334;9.506;2022-12-07T20:56:47;3.80;99.90
22319;DHT22;11327;52.334;9.506;2022-12-07T21:00:08;3.90;99.90
22319;DHT22;11327;52.334;9.506;2022-12-07T21:03:29;3.80;99.90
22319;DHT22;11327;52.334;9.506;2022-12-07T21:06:50;3.90;99.90
22319;DHT22;11327;52.334;9.506;2022-12-07T21:10:11;3.90;99.90
22319;DHT22;11327;52.334;9.506;2022-12-07T21:13:32;3.90;99.90
22319;DHT22;11327;52.334;9.506;2022-12-07T21:16:56;4.00;99.90
22319;DHT22;11327;52.334;9.506;2022-12-07T21:20:17;4.00;99.90
22319;DHT22;11327;52.334;9.506;2022-12-07T21:23:38;3.90;99.90
22319;DHT22;11327;52.334;9.506;2022-12-07T21:26:59;3.90;99.90
22319;DHT22;11327;52.334;9.506;2022-12-07T21:30:20;3.90;99.90
22319;DHT22;11327;52.334;9.506;2022-12-07T21:33:43;3.80;99.90
22319;DHT22;11327;52.334;9.506;2022-12-07T21:37:04;3.90;99.90
22319;DHT22;11327;52.334;9.506;2022-12-07T21:40:25;3.90;99.90
22319;DHT22;11327;52.334;9.506;2022-12-07T21:43:46;3.80;99.90
22319;DHT22;11327;52.334;9.506;2022-12-07T21:47:07;3.80;99.90
22319;DHT22;11327;52.334;9.506;2022-12-07T21:50:28;3.80;99.90
22319;DHT22;11327;52.334;9.506;2022-12-07T21:53:51;3.90;99.90
22319;DHT22;11327;52.334;9.506;2022-12-07T21:57:12;3.80;99.90
22319;DHT22;11327;52.334;9.506;2022-12-07T22:00:33;3.80;99.90
22319;DHT22;11327;52.334;9.506;2022-12-07T22:03:54;3.70;99.90
22319;DHT22;11327;52.334;9.506;2022-12-07T22:07:15;3.80;99.90
22319;DHT22;11327;52.334;9.506;2022-12-07T22:10:36;3.80;99.90
22319;DHT22;11327;52.334;9.506;2022-12-07T22:13:57;3.80;99.90
22319;DHT22;11327;52.334;9.506;2022-12-07T22:17:36;3.80;99.90
22319;DHT22;11327;52.334;9.506;2022-12-07T22:20:59;3.90;99.90
22319;DHT22;11327;52.334;9.506;2022-12-07T22:24:20;3.90;99.90
22319;DHT22;11327;52.334;9.506;2022-12-07T22:27:41;3.90;99.90
22319;DHT22;11327;52.334;9.506;2022-12-07T22:31:03;3.90;99.90
22319;DHT22;11327;52.334;9.506;2022-12-07T22:34:24;3.90;99.90
22319;DHT22;11327;52.334;9.506;2022-12-07T22:37:45;3.90;99.90
22319;DHT22;11327;52.334;9.506;2022-12-07T22:41:18;3.90;99.90
22319;DHT22;11327;52.334;9.506;2022-12-07T22:44:40;3.90;99.90
22319;DHT22;11327;52.334;9.506;2022-12-07T22:48:03;3.90;99.90
22319;DHT22;11327;52.334;9.506;2022-12-07T22:51:27;3.80;99.90
22319;DHT22;11327;52.334;9.506;2022-12-07T22:54:47;3.80;99.90
22319;DHT22;11327;52.334;9.506;2022-12-07T22:58:08;3.80;99.90
22319;DHT22;11327;52.334;9.506;2022-12-07T23:01:29;3.80;99.90
22319;DHT22;11327;52.334;9.506;2022-12-07T23:04:50;3.80;99.90
22319;DHT22;11327;52.334;9.506;2022-12-07T23:08:12;3.90;99.90
22319;DHT22;11327;52.334;9.506;2022-12-07T23:11:36;3.90;99.90
22319;DHT22;11327;52.334;9.506;2022-12-07T23:15:15;3.90;99.90
22319;DHT22;11327;52.334;9.506;2022-12-07T23:18:37;3.90;99.90
22319;DHT22;11327;52.334;9.506;2022-12-07T23:21:58;3.90;99.90
22319;DHT22;11327;52.334;9.506;2022-12-07T23:25:19;3.90;99.90
22319;DHT22;11327;52.334;9.506;2022-12-07T23:28:40;3.90;99.90
22319;DHT22;11327;52.334;9.506;2022-12-07T23:32:01;3.80;99.90
22319;DHT22;11327;52.334;9.506;2022-12-07T23:35:22;3.80;99.90
22319;DHT22;11327;52.334;9.506;2022-12-07T23:38:45;3.80;99.90
22319;DHT22;11327;52.334;9.506;2022-12-07T23:42:06;3.90;99.90
22319;DHT22;11327;52.334;9.506;2022-12-07T23:45:27;3.90;99.90
22319;DHT22;11327;52.334;9.506;2022-12-07T23:48:49;3.90;99.90
22319;DHT22;11327;52.334;9.506;2022-12-07T23:52:11;3.90;99.90
22319;DHT22;11327;52.334;9.506;2022-12-07T23:55:32;3.90;99.90
22319;DHT22;11327;52.334;9.506;2022-12-07T23:58:54;3.90;99.90
